createdAt,value
2023-08-08T00:04:56.732Z,14.16
2023-08-08T00:15:01.226Z,14.22
2023-08-08T00:25:05.133Z,14.14
2023-08-08T00:35:10.574Z,14.04
2023-08-08T00:45:13.617Z,14.01
2023-08-08T00:55:18.732Z,13.93
2023-08-08T01:05:22.599Z,13.87
2023-08-08T01:15:28.589Z,13.69
2023-08-08T01:25:33.622Z,13.65
2023-08-08T01:35:41.505Z,13.73
2023-08-08T01:45:47.009Z,13.55
2023-08-08T01:55:50.056Z,13.39
2023-08-08T02:05:55.787Z,13.54
2023-08-08T02:15:59.039Z,13.48
2023-08-08T02:26:04.713Z,13.46
2023-08-08T02:36:08.986Z,13.47
2023-08-08T02:46:13.554Z,13.39
2023-08-08T02:56:17.100Z,13.25
2023-08-08T03:06:21.770Z,13.23
2023-08-08T03:16:24.871Z,13.27
2023-08-08T03:26:31.421Z,13.06
2023-08-08T03:36:35.582Z,13.11
2023-08-08T03:46:39.987Z,13.01
2023-08-08T03:56:43.406Z,12.91
2023-08-08T04:06:47.711Z,12.83
2023-08-08T04:16:50.847Z,12.92
2023-08-08T04:26:55.241Z,12.93
2023-08-08T04:36:58.165Z,12.91
2023-08-08T04:47:02.661Z,12.92
2023-08-08T04:57:06.111Z,12.99
2023-08-08T05:07:10.370Z,13.25
2023-08-08T05:17:13.483Z,13.45
2023-08-08T05:27:17.765Z,13.88
2023-08-08T05:37:20.859Z,14.14
2023-08-08T05:47:25.711Z,14.26
2023-08-08T05:57:28.868Z,14.63
2023-08-08T06:07:33.404Z,14.96
2023-08-08T06:17:36.461Z,15.38
2023-08-08T06:27:41.567Z,15.75
2023-08-08T06:37:45.176Z,15.69
2023-08-08T06:47:50.116Z,16.19
2023-08-08T06:57:53.458Z,16.53
2023-08-08T07:07:58.007Z,16.78
2023-08-08T07:18:01.987Z,17.27
2023-08-08T07:28:07.140Z,17.80
2023-08-08T07:38:10.520Z,18.16
2023-08-08T07:48:14.945Z,18.90
2023-08-08T07:58:18.126Z,19.27
2023-08-08T08:08:22.933Z,18.97
2023-08-08T08:18:26.014Z,19.36
2023-08-08T08:28:30.363Z,19.26
2023-08-08T08:38:33.906Z,19.43
2023-08-08T08:48:38.582Z,19.38
2023-08-08T08:58:42.568Z,18.82
2023-08-08T09:08:48.230Z,19.38
2023-08-08T09:18:51.262Z,19.49
2023-08-08T09:28:55.642Z,20.15
2023-08-08T09:38:59.021Z,19.76
2023-08-08T09:49:04.704Z,19.75
2023-08-08T09:59:08.603Z,19.59
2023-08-08T10:09:14.117Z,19.88
2023-08-08T10:19:24.474Z,19.72
2023-08-08T10:29:31.605Z,19.53
2023-08-08T10:39:34.446Z,20.04
2023-08-08T10:49:38.708Z,19.77
2023-08-08T10:59:41.898Z,20.27
2023-08-08T11:09:46.559Z,20.21
2023-08-08T11:19:49.504Z,19.93
2023-08-08T11:29:54.113Z,19.59
2023-08-08T11:39:57.467Z,19.65
2023-08-08T11:50:02.535Z,20.37
2023-08-08T12:00:08.575Z,19.67
2023-08-08T12:10:21.026Z,19.60
2023-08-08T12:20:24.196Z,19.28
2023-08-08T12:30:28.821Z,19.68
2023-08-08T12:40:31.983Z,19.40
2023-08-08T12:50:36.350Z,18.96
2023-08-08T13:00:39.770Z,18.59
2023-08-08T13:10:44.655Z,18.43
2023-08-08T13:20:47.693Z,18.41
2023-08-08T13:30:52.159Z,18.40
2023-08-08T13:40:56.204Z,18.67
2023-08-08T13:51:00.962Z,18.57
2023-08-08T14:01:04.216Z,18.53
2023-08-08T14:11:08.787Z,18.49
2023-08-08T14:21:11.966Z,19.12
2023-08-08T14:31:16.761Z,18.79
2023-08-08T14:41:19.703Z,18.58
2023-08-08T14:51:25.393Z,18.57
2023-08-08T15:01:28.628Z,18.81
2023-08-08T15:11:33.111Z,18.94
2023-08-08T15:21:36.008Z,19.04
2023-08-08T15:31:40.406Z,19.03
2023-08-08T15:41:43.502Z,19.17
2023-08-08T15:51:49.954Z,19.08
2023-08-08T16:01:53.477Z,18.84
2023-08-08T16:11:59.029Z,18.89
2023-08-08T16:22:04.114Z,18.68
2023-08-08T16:32:08.526Z,18.76
2023-08-08T16:42:11.415Z,18.58
2023-08-08T16:52:15.964Z,18.58
2023-08-08T17:02:19.089Z,18.51
2023-08-08T17:12:23.787Z,18.41
2023-08-08T17:22:27.078Z,18.49
2023-08-08T17:32:31.861Z,18.56
2023-08-08T17:42:38.370Z,18.53
2023-08-08T17:52:43.991Z,18.52
2023-08-08T18:02:47.257Z,18.42
2023-08-08T18:12:51.870Z,18.41
2023-08-08T18:22:54.719Z,18.22
2023-08-08T18:32:59.693Z,18.09
2023-08-08T18:43:03.567Z,18.09
2023-08-08T18:53:07.997Z,18.02
2023-08-08T19:03:11.152Z,17.92
2023-08-08T19:13:16.917Z,18.05
2023-08-08T19:23:20.450Z,17.84
2023-08-08T19:33:24.934Z,17.77
2023-08-08T19:43:28.261Z,17.60
2023-08-08T19:53:32.619Z,17.33
2023-08-08T20:03:35.641Z,17.07
2023-08-08T20:13:39.957Z,16.89
2023-08-08T20:23:43.119Z,16.99
2023-08-08T20:33:47.637Z,17.08
2023-08-08T20:43:50.794Z,17.11
2023-08-08T20:53:55.094Z,16.85
2023-08-08T21:03:58.054Z,16.61
2023-08-08T21:14:02.644Z,16.89
2023-08-08T21:24:06.145Z,16.95
2023-08-08T21:34:10.395Z,16.81
2023-08-08T21:44:13.198Z,16.54
2023-08-08T21:54:18.030Z,16.26
2023-08-08T22:04:21.309Z,16.00
2023-08-08T22:14:26.728Z,15.95
2023-08-08T22:24:29.750Z,15.76
2023-08-08T22:34:34.579Z,16.09
2023-08-08T22:44:37.501Z,16.20
2023-08-08T22:54:41.990Z,15.99
2023-08-08T23:04:45.414Z,15.87
2023-08-08T23:14:49.860Z,15.97
2023-08-08T23:24:56.134Z,15.95
2023-08-08T23:35:00.576Z,15.99
2023-08-08T23:45:03.855Z,16.04
2023-08-08T23:55:11.091Z,16.11
